sensor_id;sensor_type;location;lat;lon;timestamp;P1;durP1;ratioP1;P2;durP2;ratioP2
52650;SDS011;38537;47.226;39.702;2022-11-18T00:01:08;15.23;;;10.48;;
52650;SDS011;38537;47.226;39.702;2022-11-18T00:03:36;13.23;;;10.15;;
52650;SDS011;38537;47.226;39.702;2022-11-18T00:06:04;12.00;;;9.63;;
52650;SDS011;38537;47.226;39.702;2022-11-18T00:08:33;13.07;;;9.68;;
52650;SDS011;38537;47.226;39.702;2022-11-18T00:11:05;13.13;;;10.40;;
52650;SDS011;38537;47.226;39.702;2022-11-18T00:13:34;13.30;;;10.13;;
52650;SDS011;38537;47.226;39.702;2022-11-18T00:16:22;13.55;;;10.48;;
52650;SDS011;38537;47.226;39.702;2022-11-18T00:18:50;14.85;;;10.75;;
52650;SDS011;38537;47.226;39.702;2022-11-18T00:21:17;15.32;;;10.85;;
52650;SDS011;38537;47.226;39.702;2022-11-18T00:23:46;13.63;;;10.70;;
52650;SDS011;38537;47.226;39.702;2022-11-18T00:26:14;15.73;;;10.50;;
52650;SDS011;38537;47.226;39.702;2022-11-18T00:28:41;14.93;;;10.05;;
52650;SDS011;38537;47.226;39.702;2022-11-18T00:31:12;12.80;;;10.45;;
52650;SDS011;38537;47.226;39.702;2022-11-18T00:33:40;16.23;;;10.60;;
52650;SDS011;38537;47.226;39.702;2022-11-18T00:36:10;13.75;;;10.20;;
52650;SDS011;38537;47.226;39.702;2022-11-18T00:38:38;15.90;;;10.55;;
52650;SDS011;38537;47.226;39.702;2022-11-18T00:41:07;13.85;;;10.40;;
52650;SDS011;38537;47.226;39.702;2022-11-18T00:43:36;13.30;;;10.02;;
52650;SDS011;38537;47.226;39.702;2022-11-18T00:46:04;14.50;;;10.32;;
52650;SDS011;38537;47.226;39.702;2022-11-18T00:48:32;12.65;;;10.02;;
52650;SDS011;38537;47.226;39.702;2022-11-18T00:51:10;14.43;;;10.55;;
52650;SDS011;38537;47.226;39.702;2022-11-18T00:53:41;14.35;;;10.43;;
52650;SDS011;38537;47.226;39.702;2022-11-18T00:56:09;15.25;;;10.57;;
52650;SDS011;38537;47.226;39.702;2022-11-18T00:58:37;13.60;;;9.95;;
52650;SDS011;38537;47.226;39.702;2022-11-18T01:01:05;14.65;;;9.70;;
52650;SDS011;38537;47.226;39.702;2022-11-18T01:03:32;13.98;;;10.13;;
52650;SDS011;38537;47.226;39.702;2022-11-18T01:06:02;16.73;;;10.02;;
52650;SDS011;38537;47.226;39.702;2022-11-18T01:08:30;14.80;;;9.70;;
52650;SDS011;38537;47.226;39.702;2022-11-18T01:10:57;15.05;;;9.70;;
52650;SDS011;38537;47.226;39.702;2022-11-18T01:13:47;12.70;;;10.00;;
52650;SDS011;38537;47.226;39.702;2022-11-18T01:16:19;12.65;;;8.68;;
52650;SDS011;38537;47.226;39.702;2022-11-18T01:18:48;12.95;;;9.10;;
52650;SDS011;38537;47.226;39.702;2022-11-18T01:21:16;11.60;;;8.90;;
52650;SDS011;38537;47.226;39.702;2022-11-18T01:23:44;13.63;;;9.10;;
52650;SDS011;38537;47.226;39.702;2022-11-18T01:26:16;12.35;;;9.15;;
52650;SDS011;38537;47.226;39.702;2022-11-18T01:28:45;14.38;;;9.23;;
52650;SDS011;38537;47.226;39.702;2022-11-18T01:31:14;11.23;;;9.10;;
52650;SDS011;38537;47.226;39.702;2022-11-18T01:33:45;11.88;;;9.15;;
52650;SDS011;38537;47.226;39.702;2022-11-18T01:36:17;11.93;;;8.65;;
52650;SDS011;38537;47.226;39.702;2022-11-18T01:38:52;11.10;;;8.63;;
52650;SDS011;38537;47.226;39.702;2022-11-18T01:41:22;14.52;;;9.45;;
52650;SDS011;38537;47.226;39.702;2022-11-18T01:46:21;13.05;;;9.25;;
52650;SDS011;38537;47.226;39.702;2022-11-18T01:48:53;15.20;;;9.55;;
52650;SDS011;38537;47.226;39.702;2022-11-18T01:51:27;11.98;;;9.02;;
52650;SDS011;38537;47.226;39.702;2022-11-18T01:54:05;12.05;;;8.93;;
52650;SDS011;38537;47.226;39.702;2022-11-18T01:56:39;12.18;;;9.25;;
52650;SDS011;38537;47.226;39.702;2022-11-18T01:59:11;12.13;;;9.25;;
52650;SDS011;38537;47.226;39.702;2022-11-18T02:01:42;11.98;;;8.68;;
52650;SDS011;38537;47.226;39.702;2022-11-18T02:04:10;9.93;;;8.40;;
52650;SDS011;38537;47.226;39.702;2022-11-18T02:06:40;11.57;;;8.65;;
52650;SDS011;38537;47.226;39.702;2022-11-18T02:09:09;11.40;;;8.30;;
52650;SDS011;38537;47.226;39.702;2022-11-18T02:11:39;11.25;;;8.27;;
52650;SDS011;38537;47.226;39.702;2022-11-18T02:14:23;9.63;;;7.82;;
52650;SDS011;38537;47.226;39.702;2022-11-18T02:19:46;9.20;;;7.20;;
52650;SDS011;38537;47.226;39.702;2022-11-18T02:25:19;7.45;;;5.57;;
52650;SDS011;38537;47.226;39.702;2022-11-18T02:39:30;7.88;;;6.40;;
52650;SDS011;38537;47.226;39.702;2022-11-18T02:42:08;9.68;;;6.68;;
52650;SDS011;38537;47.226;39.702;2022-11-18T02:44:39;8.25;;;6.25;;
52650;SDS011;38537;47.226;39.702;2022-11-18T02:47:12;7.80;;;6.43;;
52650;SDS011;38537;47.226;39.702;2022-11-18T02:49:42;8.02;;;6.15;;
52650;SDS011;38537;47.226;39.702;2022-11-18T02:52:14;9.70;;;6.50;;
52650;SDS011;38537;47.226;39.702;2022-11-18T02:54:45;7.38;;;5.78;;
52650;SDS011;38537;47.226;39.702;2022-11-18T02:57:15;9.00;;;6.53;;
52650;SDS011;38537;47.226;39.702;2022-11-18T02:59:45;9.00;;;5.93;;
52650;SDS011;38537;47.226;39.702;2022-11-18T03:02:16;9.40;;;5.85;;
52650;SDS011;38537;47.226;39.702;2022-11-18T03:04:45;8.93;;;5.50;;
52650;SDS011;38537;47.226;39.702;2022-11-18T03:07:27;6.47;;;4.82;;
52650;SDS011;38537;47.226;39.702;2022-11-18T03:09:58;7.20;;;5.07;;
52650;SDS011;38537;47.226;39.702;2022-11-18T03:18:06;6.65;;;4.50;;
52650;SDS011;38537;47.226;39.702;2022-11-18T03:24:11;8.75;;;4.60;;
52650;SDS011;38537;47.226;39.702;2022-11-18T03:26:46;6.47;;;4.43;;
52650;SDS011;38537;47.226;39.702;2022-11-18T03:29:20;6.40;;;4.13;;
52650;SDS011;38537;47.226;39.702;2022-11-18T03:31:59;7.63;;;4.30;;
52650;SDS011;38537;47.226;39.702;2022-11-18T03:34:33;8.57;;;4.38;;
52650;SDS011;38537;47.226;39.702;2022-11-18T03:37:04;8.00;;;4.40;;
52650;SDS011;38537;47.226;39.702;2022-11-18T03:39:37;6.57;;;4.15;;
52650;SDS011;38537;47.226;39.702;2022-11-18T03:42:13;10.30;;;4.60;;
52650;SDS011;38537;47.226;39.702;2022-11-18T03:44:46;8.27;;;4.47;;
52650;SDS011;38537;47.226;39.702;2022-11-18T03:47:28;7.30;;;5.03;;
52650;SDS011;38537;47.226;39.702;2022-11-18T03:50:05;9.50;;;5.10;;
52650;SDS011;38537;47.226;39.702;2022-11-18T03:52:39;8.25;;;4.70;;
52650;SDS011;38537;47.226;39.702;2022-11-18T03:55:10;7.80;;;4.28;;
52650;SDS011;38537;47.226;39.702;2022-11-18T04:00:12;7.63;;;4.38;;
52650;SDS011;38537;47.226;39.702;2022-11-18T04:02:41;9.13;;;4.50;;
52650;SDS011;38537;47.226;39.702;2022-11-18T04:05:11;9.38;;;4.40;;
52650;SDS011;38537;47.226;39.702;2022-11-18T04:10:28;8.82;;;4.03;;
52650;SDS011;38537;47.226;39.702;2022-11-18T04:13:09;8.30;;;3.97;;
52650;SDS011;38537;47.226;39.702;2022-11-18T04:15:44;7.78;;;3.85;;
52650;SDS011;38537;47.226;39.702;2022-11-18T04:18:13;6.82;;;3.45;;
52650;SDS011;38537;47.226;39.702;2022-11-18T04:20:41;7.40;;;3.35;;
52650;SDS011;38537;47.226;39.702;2022-11-18T04:23:08;5.63;;;3.20;;
52650;SDS011;38537;47.226;39.702;2022-11-18T04:25:36;5.60;;;3.30;;
52650;SDS011;38537;47.226;39.702;2022-11-18T04:28:05;5.25;;;3.42;;
52650;SDS011;38537;47.226;39.702;2022-11-18T04:30:33;4.57;;;3.13;;
52650;SDS011;38537;47.226;39.702;2022-11-18T04:33:01;6.20;;;3.67;;
52650;SDS011;38537;47.226;39.702;2022-11-18T04:35:28;4.68;;;3.40;;
52650;SDS011;38537;47.226;39.702;2022-11-18T04:37:56;6.47;;;3.65;;
52650;SDS011;38537;47.226;39.702;2022-11-18T04:40:23;5.05;;;3.55;;
52650;SDS011;38537;47.226;39.702;2022-11-18T04:42:50;5.63;;;3.30;;
52650;SDS011;38537;47.226;39.702;2022-11-18T04:45:17;4.60;;;3.53;;
52650;SDS011;38537;47.226;39.702;2022-11-18T04:47:45;4.55;;;3.42;;
52650;SDS011;38537;47.226;39.702;2022-11-18T04:50:13;4.93;;;3.60;;
52650;SDS011;38537;47.226;39.702;2022-11-18T04:52:41;3.97;;;3.30;;
52650;SDS011;38537;47.226;39.702;2022-11-18T04:55:08;5.25;;;3.40;;
52650;SDS011;38537;47.226;39.702;2022-11-18T04:57:36;6.60;;;3.40;;
52650;SDS011;38537;47.226;39.702;2022-11-18T05:00:03;5.50;;;3.20;;
52650;SDS011;38537;47.226;39.702;2022-11-18T05:02:33;4.60;;;3.20;;
52650;SDS011;38537;47.226;39.702;2022-11-18T05:05:02;4.10;;;3.10;;
52650;SDS011;38537;47.226;39.702;2022-11-18T05:07:30;4.40;;;3.22;;
52650;SDS011;38537;47.226;39.702;2022-11-18T05:09:57;3.80;;;3.17;;
52650;SDS011;38537;47.226;39.702;2022-11-18T05:12:24;5.47;;;3.10;;
52650;SDS011;38537;47.226;39.702;2022-11-18T05:15:11;5.07;;;3.30;;
52650;SDS011;38537;47.226;39.702;2022-11-18T05:17:40;6.00;;;3.13;;
52650;SDS011;38537;47.226;39.702;2022-11-18T05:20:09;4.45;;;3.03;;
52650;SDS011;38537;47.226;39.702;2022-11-18T05:22:37;6.13;;;3.17;;
52650;SDS011;38537;47.226;39.702;2022-11-18T05:25:05;5.88;;;3.30;;
52650;SDS011;38537;47.226;39.702;2022-11-18T05:27:33;5.05;;;3.33;;
52650;SDS011;38537;47.226;39.702;2022-11-18T05:30:00;6.32;;;4.18;;
52650;SDS011;38537;47.226;39.702;2022-11-18T05:32:29;7.22;;;3.25;;
52650;SDS011;38537;47.226;39.702;2022-11-18T05:34:57;5.70;;;3.17;;
52650;SDS011;38537;47.226;39.702;2022-11-18T05:37:25;4.63;;;3.38;;
52650;SDS011;38537;47.226;39.702;2022-11-18T05:39:52;6.15;;;3.53;;
52650;SDS011;38537;47.226;39.702;2022-11-18T05:42:20;5.10;;;3.45;;
52650;SDS011;38537;47.226;39.702;2022-11-18T05:45:05;5.47;;;3.30;;
52650;SDS011;38537;47.226;39.702;2022-11-18T05:47:33;4.55;;;3.22;;
52650;SDS011;38537;47.226;39.702;2022-11-18T05:50:20;4.35;;;2.95;;
52650;SDS011;38537;47.226;39.702;2022-11-18T05:52:47;3.10;;;2.75;;
52650;SDS011;38537;47.226;39.702;2022-11-18T05:55:15;4.95;;;3.25;;
52650;SDS011;38537;47.226;39.702;2022-11-18T05:57:46;3.00;;;2.70;;
52650;SDS011;38537;47.226;39.702;2022-11-18T06:00:14;3.08;;;2.45;;
52650;SDS011;38537;47.226;39.702;2022-11-18T06:02:42;4.80;;;2.80;;
52650;SDS011;38537;47.226;39.702;2022-11-18T06:05:13;3.05;;;2.50;;
52650;SDS011;38537;47.226;39.702;2022-11-18T06:07:43;4.90;;;2.75;;
52650;SDS011;38537;47.226;39.702;2022-11-18T06:10:21;3.22;;;2.67;;
52650;SDS011;38537;47.226;39.702;2022-11-18T06:12:56;4.53;;;2.65;;
52650;SDS011;38537;47.226;39.702;2022-11-18T06:15:27;4.18;;;2.70;;
52650;SDS011;38537;47.226;39.702;2022-11-18T06:18:09;4.50;;;2.90;;
52650;SDS011;38537;47.226;39.702;2022-11-18T06:20:49;5.25;;;3.22;;
52650;SDS011;38537;47.226;39.702;2022-11-18T06:23:20;6.63;;;3.25;;
52650;SDS011;38537;47.226;39.702;2022-11-18T06:25:48;6.47;;;2.97;;
52650;SDS011;38537;47.226;39.702;2022-11-18T06:28:16;4.80;;;2.72;;
52650;SDS011;38537;47.226;39.702;2022-11-18T06:30:45;6.20;;;3.05;;
52650;SDS011;38537;47.226;39.702;2022-11-18T06:33:13;5.40;;;3.05;;
52650;SDS011;38537;47.226;39.702;2022-11-18T06:35:41;6.15;;;3.40;;
52650;SDS011;38537;47.226;39.702;2022-11-18T06:38:09;5.47;;;3.65;;
52650;SDS011;38537;47.226;39.702;2022-11-18T06:40:36;7.22;;;4.40;;
52650;SDS011;38537;47.226;39.702;2022-11-18T06:43:04;8.57;;;4.03;;
52650;SDS011;38537;47.226;39.702;2022-11-18T06:46:02;3.67;;;3.10;;
52650;SDS011;38537;47.226;39.702;2022-11-18T06:48:50;2.90;;;2.60;;
52650;SDS011;38537;47.226;39.702;2022-11-18T06:51:18;3.00;;;2.42;;
52650;SDS011;38537;47.226;39.702;2022-11-18T06:53:45;3.00;;;2.72;;
52650;SDS011;38537;47.226;39.702;2022-11-18T06:56:14;2.97;;;2.63;;
52650;SDS011;38537;47.226;39.702;2022-11-18T06:58:42;3.50;;;3.08;;
52650;SDS011;38537;47.226;39.702;2022-11-18T07:01:20;4.05;;;2.92;;
52650;SDS011;38537;47.226;39.702;2022-11-18T07:03:49;3.25;;;2.95;;
52650;SDS011;38537;47.226;39.702;2022-11-18T07:06:21;4.00;;;3.13;;
52650;SDS011;38537;47.226;39.702;2022-11-18T07:08:50;5.00;;;3.42;;
52650;SDS011;38537;47.226;39.702;2022-11-18T07:11:20;4.63;;;3.47;;
52650;SDS011;38537;47.226;39.702;2022-11-18T07:13:48;4.47;;;3.38;;
52650;SDS011;38537;47.226;39.702;2022-11-18T07:16:18;7.70;;;3.75;;
52650;SDS011;38537;47.226;39.702;2022-11-18T07:18:47;3.92;;;3.20;;
52650;SDS011;38537;47.226;39.702;2022-11-18T07:21:17;6.32;;;3.45;;
52650;SDS011;38537;47.226;39.702;2022-11-18T07:23:48;6.95;;;4.00;;
52650;SDS011;38537;47.226;39.702;2022-11-18T07:26:16;5.05;;;4.10;;
52650;SDS011;38537;47.226;39.702;2022-11-18T07:28:45;5.95;;;4.55;;
52650;SDS011;38537;47.226;39.702;2022-11-18T07:31:18;6.57;;;4.50;;
52650;SDS011;38537;47.226;39.702;2022-11-18T07:33:46;8.70;;;4.70;;
52650;SDS011;38537;47.226;39.702;2022-11-18T07:36:16;7.22;;;5.32;;
52650;SDS011;38537;47.226;39.702;2022-11-18T07:38:45;9.23;;;5.47;;
52650;SDS011;38537;47.226;39.702;2022-11-18T07:41:14;9.23;;;6.00;;
52650;SDS011;38537;47.226;39.702;2022-11-18T07:43:47;9.05;;;6.47;;
52650;SDS011;38537;47.226;39.702;2022-11-18T07:46:26;9.82;;;6.30;;
52650;SDS011;38537;47.226;39.702;2022-11-18T07:48:54;8.35;;;6.10;;
52650;SDS011;38537;47.226;39.702;2022-11-18T07:51:24;12.38;;;7.65;;
52650;SDS011;38537;47.226;39.702;2022-11-18T07:53:53;11.98;;;7.57;;
52650;SDS011;38537;47.226;39.702;2022-11-18T07:56:21;14.50;;;7.43;;
52650;SDS011;38537;47.226;39.702;2022-11-18T07:58:52;9.45;;;6.88;;
52650;SDS011;38537;47.226;39.702;2022-11-18T08:01:22;12.18;;;7.63;;
52650;SDS011;38537;47.226;39.702;2022-11-18T08:03:51;12.88;;;7.85;;
52650;SDS011;38537;47.226;39.702;2022-11-18T08:06:18;10.55;;;7.32;;
52650;SDS011;38537;47.226;39.702;2022-11-18T08:08:46;10.93;;;7.90;;
52650;SDS011;38537;47.226;39.702;2022-11-18T08:11:15;10.80;;;8.00;;
52650;SDS011;38537;47.226;39.702;2022-11-18T08:13:49;9.07;;;7.43;;
52650;SDS011;38537;47.226;39.702;2022-11-18T08:16:18;10.77;;;7.90;;
52650;SDS011;38537;47.226;39.702;2022-11-18T08:18:48;11.05;;;9.07;;
52650;SDS011;38537;47.226;39.702;2022-11-18T08:21:17;15.75;;;9.40;;
52650;SDS011;38537;47.226;39.702;2022-11-18T08:23:49;10.57;;;8.43;;
52650;SDS011;38537;47.226;39.702;2022-11-18T08:26:20;11.05;;;7.10;;
52650;SDS011;38537;47.226;39.702;2022-11-18T08:28:49;7.53;;;6.70;;
52650;SDS011;38537;47.226;39.702;2022-11-18T08:31:17;7.68;;;5.40;;
52650;SDS011;38537;47.226;39.702;2022-11-18T08:33:47;5.55;;;5.00;;
52650;SDS011;38537;47.226;39.702;2022-11-18T08:36:16;8.15;;;4.78;;
52650;SDS011;38537;47.226;39.702;2022-11-18T08:38:46;6.25;;;4.70;;
52650;SDS011;38537;47.226;39.702;2022-11-18T08:41:14;9.85;;;4.47;;
52650;SDS011;38537;47.226;39.702;2022-11-18T08:43:44;6.80;;;4.40;;
52650;SDS011;38537;47.226;39.702;2022-11-18T08:46:12;8.07;;;4.85;;
52650;SDS011;38537;47.226;39.702;2022-11-18T08:48:39;7.90;;;5.07;;
52650;SDS011;38537;47.226;39.702;2022-11-18T08:51:08;8.63;;;5.28;;
52650;SDS011;38537;47.226;39.702;2022-11-18T08:53:39;8.07;;;5.25;;
52650;SDS011;38537;47.226;39.702;2022-11-18T08:56:10;7.25;;;4.90;;
52650;SDS011;38537;47.226;39.702;2022-11-18T08:58:41;7.67;;;4.93;;
52650;SDS011;38537;47.226;39.702;2022-11-18T09:01:09;6.53;;;4.22;;
52650;SDS011;38537;47.226;39.702;2022-11-18T09:03:37;6.32;;;4.80;;
52650;SDS011;38537;47.226;39.702;2022-11-18T09:08:36;7.13;;;4.68;;
52650;SDS011;38537;47.226;39.702;2022-11-18T09:11:05;6.97;;;4.63;;
52650;SDS011;38537;47.226;39.702;2022-11-18T09:13:53;5.20;;;4.07;;
52650;SDS011;38537;47.226;39.702;2022-11-18T09:16:42;9.05;;;4.60;;
52650;SDS011;38537;47.226;39.702;2022-11-18T09:19:09;5.90;;;4.60;;
52650;SDS011;38537;47.226;39.702;2022-11-18T09:21:56;10.90;;;5.35;;
52650;SDS011;38537;47.226;39.702;2022-11-18T09:24:23;7.25;;;4.60;;
52650;SDS011;38537;47.226;39.702;2022-11-18T09:26:51;7.18;;;4.60;;
52650;SDS011;38537;47.226;39.702;2022-11-18T09:29:19;8.35;;;5.20;;
52650;SDS011;38537;47.226;39.702;2022-11-18T09:31:51;6.55;;;4.63;;
52650;SDS011;38537;47.226;39.702;2022-11-18T09:34:21;6.63;;;4.60;;
52650;SDS011;38537;47.226;39.702;2022-11-18T09:36:49;8.65;;;4.63;;
52650;SDS011;38537;47.226;39.702;2022-11-18T09:39:17;7.28;;;4.95;;
52650;SDS011;38537;47.226;39.702;2022-11-18T09:41:45;7.22;;;4.93;;
52650;SDS011;38537;47.226;39.702;2022-11-18T09:49:40;5.50;;;4.55;;
52650;SDS011;38537;47.226;39.702;2022-11-18T09:54:44;8.13;;;4.05;;
52650;SDS011;38537;47.226;39.702;2022-11-18T09:57:13;5.80;;;3.90;;
52650;SDS011;38537;47.226;39.702;2022-11-18T09:59:44;6.10;;;3.55;;
52650;SDS011;38537;47.226;39.702;2022-11-18T10:04:39;3.92;;;2.83;;
52650;SDS011;38537;47.226;39.702;2022-11-18T10:07:12;3.53;;;2.95;;
52650;SDS011;38537;47.226;39.702;2022-11-18T10:09:44;3.63;;;2.70;;
52650;SDS011;38537;47.226;39.702;2022-11-18T10:12:19;3.42;;;2.50;;
52650;SDS011;38537;47.226;39.702;2022-11-18T10:23:48;5.15;;;3.20;;
52650;SDS011;38537;47.226;39.702;2022-11-18T10:26:37;3.65;;;2.83;;
52650;SDS011;38537;47.226;39.702;2022-11-18T10:29:07;3.20;;;2.70;;
52650;SDS011;38537;47.226;39.702;2022-11-18T10:31:51;3.10;;;2.80;;
52650;SDS011;38537;47.226;39.702;2022-11-18T10:34:31;4.50;;;2.47;;
52650;SDS011;38537;47.226;39.702;2022-11-18T10:37:23;2.90;;;2.60;;
52650;SDS011;38537;47.226;39.702;2022-11-18T10:40:24;3.53;;;2.30;;
52650;SDS011;38537;47.226;39.702;2022-11-18T10:42:56;3.47;;;1.92;;
52650;SDS011;38537;47.226;39.702;2022-11-18T10:45:26;2.22;;;2.00;;
52650;SDS011;38537;47.226;39.702;2022-11-18T10:53:33;2.55;;;1.90;;
52650;SDS011;38537;47.226;39.702;2022-11-18T10:56:04;2.40;;;1.60;;
52650;SDS011;38537;47.226;39.702;2022-11-18T10:58:36;2.03;;;1.70;;
52650;SDS011;38537;47.226;39.702;2022-11-18T11:04:30;2.10;;;1.80;;
52650;SDS011;38537;47.226;39.702;2022-11-18T11:06:46;2.75;;;1.95;;
52650;SDS011;38537;47.226;39.702;2022-11-18T11:11:41;4.43;;;1.80;;
52650;SDS011;38537;47.226;39.702;2022-11-18T11:17:14;2.65;;;1.70;;
52650;SDS011;38537;47.226;39.702;2022-11-18T11:19:49;2.05;;;1.70;;
52650;SDS011;38537;47.226;39.702;2022-11-18T11:22:21;3.47;;;1.73;;
52650;SDS011;38537;47.226;39.702;2022-11-18T11:24:48;3.63;;;1.77;;
52650;SDS011;38537;47.226;39.702;2022-11-18T11:27:26;2.05;;;1.80;;
52650;SDS011;38537;47.226;39.702;2022-11-18T11:30:19;3.72;;;1.98;;
52650;SDS011;38537;47.226;39.702;2022-11-18T11:41:48;3.45;;;1.90;;
52650;SDS011;38537;47.226;39.702;2022-11-18T11:44:35;2.35;;;1.90;;
52650;SDS011;38537;47.226;39.702;2022-11-18T11:47:28;3.00;;;1.98;;
52650;SDS011;38537;47.226;39.702;2022-11-18T11:56:44;6.03;;;2.85;;
52650;SDS011;38537;47.226;39.702;2022-11-18T12:02:19;6.72;;;3.38;;
52650;SDS011;38537;47.226;39.702;2022-11-18T12:05:15;6.97;;;2.50;;
52650;SDS011;38537;47.226;39.702;2022-11-18T12:07:50;4.93;;;2.80;;
52650;SDS011;38537;47.226;39.702;2022-11-18T12:13:31;7.25;;;3.00;;
52650;SDS011;38537;47.226;39.702;2022-11-18T12:19:02;5.35;;;2.90;;
52650;SDS011;38537;47.226;39.702;2022-11-18T12:26:53;5.70;;;3.42;;
52650;SDS011;38537;47.226;39.702;2022-11-18T12:29:21;3.58;;;2.70;;
52650;SDS011;38537;47.226;39.702;2022-11-18T12:31:54;3.40;;;2.60;;
52650;SDS011;38537;47.226;39.702;2022-11-18T12:38:00;4.40;;;3.40;;
52650;SDS011;38537;47.226;39.702;2022-11-18T12:42:39;6.20;;;4.68;;
52650;SDS011;38537;47.226;39.702;2022-11-18T12:45:37;5.05;;;4.00;;
52650;SDS011;38537;47.226;39.702;2022-11-18T12:53:34;6.50;;;4.85;;
52650;SDS011;38537;47.226;39.702;2022-11-18T12:58:43;6.78;;;4.97;;
52650;SDS011;38537;47.226;39.702;2022-11-18T13:01:12;5.25;;;4.72;;
52650;SDS011;38537;47.226;39.702;2022-11-18T13:03:42;9.85;;;5.60;;
52650;SDS011;38537;47.226;39.702;2022-11-18T13:06:20;6.45;;;5.50;;
52650;SDS011;38537;47.226;39.702;2022-11-18T13:08:55;7.05;;;5.22;;
52650;SDS011;38537;47.226;39.702;2022-11-18T13:11:29;7.87;;;5.60;;
52650;SDS011;38537;47.226;39.702;2022-11-18T13:14:15;8.60;;;5.90;;
52650;SDS011;38537;47.226;39.702;2022-11-18T13:26:05;7.95;;;6.03;;
52650;SDS011;38537;47.226;39.702;2022-11-18T13:34:57;8.38;;;5.85;;
52650;SDS011;38537;47.226;39.702;2022-11-18T13:37:33;7.15;;;5.72;;
52650;SDS011;38537;47.226;39.702;2022-11-18T13:40:00;7.03;;;5.45;;
52650;SDS011;38537;47.226;39.702;2022-11-18T13:42:29;6.55;;;5.28;;
52650;SDS011;38537;47.226;39.702;2022-11-18T13:44:58;5.57;;;4.53;;
52650;SDS011;38537;47.226;39.702;2022-11-18T13:50:46;6.22;;;5.63;;
52650;SDS011;38537;47.226;39.702;2022-11-18T13:53:30;6.55;;;5.60;;
52650;SDS011;38537;47.226;39.702;2022-11-18T13:56:02;10.63;;;5.95;;
52650;SDS011;38537;47.226;39.702;2022-11-18T13:58:40;6.78;;;5.63;;
52650;SDS011;38537;47.226;39.702;2022-11-18T14:01:31;6.70;;;6.00;;
52650;SDS011;38537;47.226;39.702;2022-11-18T14:04:03;8.18;;;6.22;;
52650;SDS011;38537;47.226;39.702;2022-11-18T14:09:22;6.85;;;5.80;;
52650;SDS011;38537;47.226;39.702;2022-11-18T14:12:05;7.28;;;5.90;;
52650;SDS011;38537;47.226;39.702;2022-11-18T14:14:47;8.75;;;5.95;;
52650;SDS011;38537;47.226;39.702;2022-11-18T14:19:43;8.45;;;6.68;;
52650;SDS011;38537;47.226;39.702;2022-11-18T14:22:16;7.57;;;6.32;;
52650;SDS011;38537;47.226;39.702;2022-11-18T14:24:56;8.77;;;6.93;;
52650;SDS011;38537;47.226;39.702;2022-11-18T14:35:51;9.38;;;6.15;;
52650;SDS011;38537;47.226;39.702;2022-11-18T14:38:30;7.80;;;6.10;;
52650;SDS011;38537;47.226;39.702;2022-11-18T14:41:23;7.13;;;6.32;;
52650;SDS011;38537;47.226;39.702;2022-11-18T14:44:12;8.63;;;6.13;;
52650;SDS011;38537;47.226;39.702;2022-11-18T14:46:41;7.78;;;6.13;;
52650;SDS011;38537;47.226;39.702;2022-11-18T14:49:14;10.15;;;7.10;;
52650;SDS011;38537;47.226;39.702;2022-11-18T14:51:44;8.15;;;6.70;;
52650;SDS011;38537;47.226;39.702;2022-11-18T14:54:16;9.02;;;6.82;;
52650;SDS011;38537;47.226;39.702;2022-11-18T14:57:05;6.85;;;5.45;;
52650;SDS011;38537;47.226;39.702;2022-11-18T14:59:32;8.55;;;6.20;;
52650;SDS011;38537;47.226;39.702;2022-11-18T15:01:59;12.38;;;7.10;;
52650;SDS011;38537;47.226;39.702;2022-11-18T15:04:27;10.73;;;6.75;;
52650;SDS011;38537;47.226;39.702;2022-11-18T15:06:54;10.80;;;6.47;;
52650;SDS011;38537;47.226;39.702;2022-11-18T15:09:22;10.23;;;6.28;;
52650;SDS011;38537;47.226;39.702;2022-11-18T15:11:49;7.97;;;5.72;;
52650;SDS011;38537;47.226;39.702;2022-11-18T15:14:16;8.57;;;6.07;;
52650;SDS011;38537;47.226;39.702;2022-11-18T15:16:44;11.48;;;6.70;;
52650;SDS011;38537;47.226;39.702;2022-11-18T15:19:15;8.07;;;6.30;;
52650;SDS011;38537;47.226;39.702;2022-11-18T15:21:43;7.32;;;5.65;;
52650;SDS011;38537;47.226;39.702;2022-11-18T15:24:11;7.72;;;6.35;;
52650;SDS011;38537;47.226;39.702;2022-11-18T15:26:39;7.28;;;6.25;;
52650;SDS011;38537;47.226;39.702;2022-11-18T15:29:18;7.63;;;5.13;;
52650;SDS011;38537;47.226;39.702;2022-11-18T15:31:48;9.63;;;6.45;;
52650;SDS011;38537;47.226;39.702;2022-11-18T15:34:16;10.48;;;7.40;;
52650;SDS011;38537;47.226;39.702;2022-11-18T15:36:46;8.13;;;6.18;;
52650;SDS011;38537;47.226;39.702;2022-11-18T15:39:16;7.45;;;5.65;;
52650;SDS011;38537;47.226;39.702;2022-11-18T15:41:45;5.72;;;4.80;;
52650;SDS011;38537;47.226;39.702;2022-11-18T15:44:12;6.40;;;5.60;;
52650;SDS011;38537;47.226;39.702;2022-11-18T15:46:40;7.30;;;5.60;;
52650;SDS011;38537;47.226;39.702;2022-11-18T15:49:09;11.80;;;5.70;;
52650;SDS011;38537;47.226;39.702;2022-11-18T15:51:39;6.68;;;5.97;;
52650;SDS011;38537;47.226;39.702;2022-11-18T15:54:07;7.60;;;5.97;;
52650;SDS011;38537;47.226;39.702;2022-11-18T15:56:36;9.52;;;6.13;;
52650;SDS011;38537;47.226;39.702;2022-11-18T15:59:07;11.50;;;6.38;;
52650;SDS011;38537;47.226;39.702;2022-11-18T16:01:38;10.93;;;5.97;;
52650;SDS011;38537;47.226;39.702;2022-11-18T16:04:08;8.30;;;6.40;;
52650;SDS011;38537;47.226;39.702;2022-11-18T16:06:37;6.85;;;5.70;;
52650;SDS011;38537;47.226;39.702;2022-11-18T16:09:05;9.07;;;6.32;;
52650;SDS011;38537;47.226;39.702;2022-11-18T16:11:33;7.57;;;6.22;;
52650;SDS011;38537;47.226;39.702;2022-11-18T16:14:20;7.20;;;6.25;;
52650;SDS011;38537;47.226;39.702;2022-11-18T16:16:50;6.88;;;6.18;;
52650;SDS011;38537;47.226;39.702;2022-11-18T16:19:20;8.07;;;5.88;;
52650;SDS011;38537;47.226;39.702;2022-11-18T16:21:51;7.47;;;6.70;;
52650;SDS011;38537;47.226;39.702;2022-11-18T16:24:21;10.00;;;7.20;;
52650;SDS011;38537;47.226;39.702;2022-11-18T16:26:51;8.23;;;7.35;;
52650;SDS011;38537;47.226;39.702;2022-11-18T16:29:18;9.40;;;6.78;;
52650;SDS011;38537;47.226;39.702;2022-11-18T16:31:47;8.15;;;6.82;;
52650;SDS011;38537;47.226;39.702;2022-11-18T16:36:51;10.15;;;6.88;;
52650;SDS011;38537;47.226;39.702;2022-11-18T16:39:23;9.30;;;7.07;;
52650;SDS011;38537;47.226;39.702;2022-11-18T16:41:53;7.57;;;6.57;;
52650;SDS011;38537;47.226;39.702;2022-11-18T16:44:32;8.75;;;7.43;;
52650;SDS011;38537;47.226;39.702;2022-11-18T16:47:00;11.30;;;7.90;;
52650;SDS011;38537;47.226;39.702;2022-11-18T16:49:30;8.35;;;6.88;;
52650;SDS011;38537;47.226;39.702;2022-11-18T16:51:58;12.82;;;6.88;;
52650;SDS011;38537;47.226;39.702;2022-11-18T16:54:29;8.10;;;6.60;;
52650;SDS011;38537;47.226;39.702;2022-11-18T16:56:58;13.10;;;7.15;;
52650;SDS011;38537;47.226;39.702;2022-11-18T16:59:26;10.70;;;7.30;;
52650;SDS011;38537;47.226;39.702;2022-11-18T17:01:55;10.90;;;7.18;;
52650;SDS011;38537;47.226;39.702;2022-11-18T17:04:24;9.25;;;6.53;;
52650;SDS011;38537;47.226;39.702;2022-11-18T17:06:53;10.20;;;6.43;;
52650;SDS011;38537;47.226;39.702;2022-11-18T17:09:22;8.93;;;7.00;;
52650;SDS011;38537;47.226;39.702;2022-11-18T17:11:50;9.30;;;6.43;;
52650;SDS011;38537;47.226;39.702;2022-11-18T17:14:19;8.10;;;6.07;;
52650;SDS011;38537;47.226;39.702;2022-11-18T17:16:48;8.98;;;6.13;;
52650;SDS011;38537;47.226;39.702;2022-11-18T17:19:20;8.85;;;5.78;;
52650;SDS011;38537;47.226;39.702;2022-11-18T17:21:50;8.20;;;6.40;;
52650;SDS011;38537;47.226;39.702;2022-11-18T17:24:18;9.77;;;5.80;;
52650;SDS011;38537;47.226;39.702;2022-11-18T17:26:48;10.77;;;6.00;;